createdAt,value
2018-08-12T00:00:27.120Z,23.10
2018-08-12T00:02:56.798Z,23.00
2018-08-12T00:05:25.593Z,22.90
2018-08-12T00:07:54.395Z,23.00
2018-08-12T00:10:24.116Z,23.10
2018-08-12T00:12:52.835Z,23.00
2018-08-12T00:15:22.501Z,23.00
2018-08-12T00:17:51.248Z,23.10
2018-08-12T00:20:21.587Z,23.10
2018-08-12T00:22:50.815Z,23.10
2018-08-12T00:25:20.976Z,23.10
2018-08-12T00:27:49.740Z,23.00
2018-08-12T00:30:19.153Z,23.10
2018-08-12T00:32:47.892Z,23.00
2018-08-12T00:35:17.798Z,23.10
2018-08-12T00:37:46.555Z,23.10
2018-08-12T00:40:16.260Z,23.00
2018-08-12T00:42:45.457Z,23.00
2018-08-12T00:45:17.343Z,23.00
2018-08-12T00:47:46.341Z,23.00
2018-08-12T00:50:15.845Z,23.10
2018-08-12T00:52:44.689Z,23.00
2018-08-12T00:55:15.541Z,23.00
2018-08-12T00:57:45.159Z,22.90
2018-08-12T01:00:16.958Z,22.90
2018-08-12T01:02:45.639Z,22.90
2018-08-12T01:05:15.705Z,22.90
2018-08-12T01:07:45.076Z,22.80
2018-08-12T01:10:14.247Z,22.70
2018-08-12T01:12:42.980Z,22.70
2018-08-12T01:15:13.973Z,22.60
2018-08-12T01:17:43.302Z,22.60
2018-08-12T01:20:14.026Z,22.50
2018-08-12T01:22:42.724Z,22.40
2018-08-12T01:25:11.918Z,22.20
2018-08-12T01:27:40.636Z,22.20
2018-08-12T01:30:13.083Z,22.20
2018-08-12T01:32:42.157Z,22.10
2018-08-12T01:35:11.965Z,22.20
2018-08-12T01:37:41.208Z,22.20
2018-08-12T01:40:12.035Z,22.10
2018-08-12T01:42:41.588Z,22.10
2018-08-12T01:45:12.998Z,22.10
2018-08-12T01:47:41.712Z,22.20
2018-08-12T01:50:12.881Z,22.20
2018-08-12T01:52:41.591Z,22.20
2018-08-12T01:55:10.332Z,22.30
2018-08-12T01:57:39.058Z,22.30
2018-08-12T02:00:10.354Z,22.30
2018-08-12T02:02:39.033Z,22.40
2018-08-12T02:05:07.778Z,22.30
2018-08-12T02:07:36.535Z,22.30
2018-08-12T02:10:07.171Z,22.20
2018-08-12T02:12:35.879Z,22.20
2018-08-12T02:15:05.800Z,22.30
2018-08-12T02:17:34.648Z,22.40
2018-08-12T02:20:04.033Z,22.40
2018-08-12T02:22:33.564Z,22.40
2018-08-12T02:25:02.273Z,22.50
2018-08-12T02:27:31.887Z,22.50
2018-08-12T02:30:00.577Z,22.50
2018-08-12T02:32:29.207Z,22.40
2018-08-12T02:34:57.913Z,22.40
2018-08-12T02:37:26.592Z,22.40
2018-08-12T02:39:58.129Z,22.40
2018-08-12T02:42:26.943Z,22.40
2018-08-12T02:44:55.864Z,22.40
2018-08-12T02:47:24.619Z,22.40
2018-08-12T02:49:53.257Z,22.40
2018-08-12T02:52:22.577Z,22.30
2018-08-12T02:54:51.275Z,22.30
2018-08-12T02:57:19.993Z,22.30
2018-08-12T02:59:49.424Z,22.30
2018-08-12T03:02:18.173Z,22.20
2018-08-12T03:04:46.855Z,22.30
2018-08-12T03:07:15.551Z,22.40
2018-08-12T03:09:44.201Z,22.40
2018-08-12T03:12:12.992Z,22.50
2018-08-12T03:14:41.645Z,22.50
2018-08-12T03:17:10.408Z,22.50
2018-08-12T03:19:39.146Z,22.50
2018-08-12T03:22:07.841Z,22.40
2018-08-12T03:24:36.510Z,22.20
2018-08-12T03:27:05.240Z,22.10
2018-08-12T03:29:34.296Z,21.70
2018-08-12T03:32:03.026Z,21.50
2018-08-12T03:34:32.704Z,21.50
2018-08-12T03:37:01.418Z,21.60
2018-08-12T03:39:30.170Z,21.60
2018-08-12T03:41:58.863Z,21.60
2018-08-12T03:44:27.547Z,21.40
2018-08-12T03:46:56.183Z,21.30
2018-08-12T03:49:24.857Z,21.30
2018-08-12T03:51:53.536Z,21.20
2018-08-12T03:54:22.268Z,21.20
2018-08-12T03:56:50.968Z,21.10
2018-08-12T03:59:19.669Z,21.00
2018-08-12T04:01:48.400Z,21.00
2018-08-12T04:04:17.138Z,21.00
2018-08-12T04:06:45.795Z,21.00
2018-08-12T04:09:14.476Z,21.10
2018-08-12T04:11:43.165Z,21.20
2018-08-12T04:14:11.891Z,21.30
2018-08-12T04:16:44.769Z,21.30
2018-08-12T04:19:13.429Z,21.40
2018-08-12T04:21:42.228Z,21.50
2018-08-12T04:24:10.957Z,21.50
2018-08-12T04:26:39.661Z,21.50
2018-08-12T04:29:08.430Z,21.50
2018-08-12T04:31:37.131Z,21.60
2018-08-12T04:34:05.825Z,21.70
2018-08-12T04:36:34.545Z,21.80
2018-08-12T04:39:03.364Z,21.90
2018-08-12T04:41:32.433Z,21.90
2018-08-12T04:44:01.176Z,21.90
2018-08-12T04:46:29.881Z,21.90
2018-08-12T04:48:58.534Z,21.90
2018-08-12T04:51:27.712Z,22.00
2018-08-12T04:53:56.351Z,22.10
2018-08-12T04:56:25.076Z,22.10
2018-08-12T04:58:53.796Z,22.30
2018-08-12T05:01:22.438Z,22.40
2018-08-12T05:03:51.567Z,22.30
2018-08-12T05:06:20.235Z,22.20
2018-08-12T05:08:49.003Z,22.10
2018-08-12T05:11:17.900Z,22.00
2018-08-12T05:13:46.612Z,22.10
2018-08-12T05:16:15.279Z,22.10
2018-08-12T05:18:46.206Z,22.10
2018-08-12T05:21:14.905Z,22.20
2018-08-12T05:23:43.649Z,22.30
2018-08-12T05:26:12.446Z,22.50
2018-08-12T05:28:41.167Z,22.60
2018-08-12T05:31:09.960Z,22.70
2018-08-12T05:33:38.659Z,22.80
2018-08-12T05:36:07.583Z,22.80
2018-08-12T05:38:36.308Z,22.90
2018-08-12T05:41:05.069Z,23.00
2018-08-12T05:43:34.640Z,23.10
2018-08-12T05:46:03.385Z,23.20
2018-08-12T05:48:32.740Z,23.30
2018-08-12T05:51:01.519Z,23.40
2018-08-12T05:53:30.196Z,23.40
2018-08-12T05:55:58.895Z,23.40
2018-08-12T05:58:27.618Z,23.50
2018-08-12T06:00:56.301Z,23.50
2018-08-12T06:03:24.972Z,23.50
2018-08-12T06:05:53.685Z,23.60
2018-08-12T06:08:22.337Z,23.70
2018-08-12T06:10:51.028Z,23.70
2018-08-12T06:13:19.723Z,23.80
2018-08-12T06:15:48.501Z,23.80
2018-08-12T06:18:17.176Z,23.80
2018-08-12T06:20:45.875Z,23.90
2018-08-12T06:23:14.616Z,23.90
2018-08-12T06:25:43.334Z,23.80
2018-08-12T06:28:11.979Z,23.90
2018-08-12T06:30:40.765Z,23.80
2018-08-12T06:33:09.486Z,23.80
2018-08-12T06:35:38.244Z,23.90
2018-08-12T06:38:06.954Z,23.90
2018-08-12T06:40:35.621Z,24.00
2018-08-12T06:43:04.396Z,24.20
2018-08-12T06:45:34.211Z,24.20
2018-08-12T06:48:02.971Z,24.40
2018-08-12T06:50:32.625Z,24.60
2018-08-12T06:53:01.396Z,24.80
2018-08-12T06:55:30.199Z,25.00
2018-08-12T06:57:58.880Z,25.10
2018-08-12T07:00:27.635Z,25.00
2018-08-12T07:02:56.354Z,24.50
2018-08-12T07:05:25.016Z,24.10
2018-08-12T07:07:53.767Z,24.20
2018-08-12T07:10:22.509Z,24.20
2018-08-12T07:12:51.241Z,24.20
2018-08-12T07:15:19.980Z,24.30
2018-08-12T07:17:48.728Z,24.40
2018-08-12T07:20:17.457Z,24.50
2018-08-12T07:22:46.185Z,24.40
2018-08-12T07:25:15.576Z,24.50
2018-08-12T07:27:44.421Z,24.60
2018-08-12T07:30:15.876Z,24.60
2018-08-12T07:32:44.630Z,24.60
2018-08-12T07:35:13.544Z,24.70
2018-08-12T07:37:43.029Z,24.80
2018-08-12T07:40:15.495Z,24.90
2018-08-12T07:42:44.230Z,24.90
2018-08-12T07:45:13.601Z,25.00
2018-08-12T07:47:42.824Z,25.00
2018-08-12T07:50:11.729Z,25.10
2018-08-12T07:52:41.585Z,25.10
2018-08-12T07:55:11.362Z,25.20
2018-08-12T07:57:40.533Z,25.20
2018-08-12T08:00:12.194Z,25.00
2018-08-12T08:02:40.951Z,25.10
2018-08-12T08:05:09.665Z,25.20
2018-08-12T08:07:38.418Z,25.20
2018-08-12T08:10:09.506Z,25.20
2018-08-12T08:12:38.847Z,25.30
2018-08-12T08:15:09.839Z,25.40
2018-08-12T08:17:39.132Z,25.40
2018-08-12T08:20:09.083Z,25.50
2018-08-12T08:22:38.135Z,25.50
2018-08-12T08:25:07.739Z,25.60
2018-08-12T08:27:36.754Z,25.70
2018-08-12T08:30:07.152Z,25.80
2018-08-12T08:32:35.880Z,25.80
2018-08-12T08:35:04.683Z,25.90
2018-08-12T08:37:34.061Z,26.00
2018-08-12T08:40:02.902Z,26.10
2018-08-12T08:42:32.329Z,26.10
2018-08-12T08:45:02.884Z,26.10
2018-08-12T08:47:35.673Z,26.10
2018-08-12T08:50:04.898Z,26.20
2018-08-12T08:52:34.971Z,26.30
2018-08-12T08:55:03.924Z,26.30
2018-08-12T08:57:37.889Z,26.30
2018-08-12T09:00:09.590Z,26.30
2018-08-12T09:02:38.734Z,26.40
2018-08-12T09:05:09.262Z,26.50
2018-08-12T09:07:38.196Z,26.50
2018-08-12T09:10:08.678Z,26.50
2018-08-12T09:12:37.973Z,26.60
2018-08-12T09:15:08.618Z,26.60
2018-08-12T09:17:37.605Z,26.60
2018-08-12T09:20:08.617Z,26.70
2018-08-12T09:22:37.588Z,26.70
2018-08-12T09:25:07.106Z,26.90
2018-08-12T09:27:36.059Z,27.00
2018-08-12T09:30:08.229Z,27.00
2018-08-12T09:32:37.005Z,27.10
2018-08-12T09:35:05.801Z,27.10
2018-08-12T09:37:34.543Z,27.20
2018-08-12T09:40:03.312Z,27.30
2018-08-12T09:42:32.751Z,27.30
2018-08-12T09:45:01.437Z,27.40
2018-08-12T09:47:30.112Z,27.40
2018-08-12T09:49:58.822Z,27.40
2018-08-12T09:52:27.461Z,27.50
2018-08-12T09:54:56.220Z,27.50
2018-08-12T09:57:24.909Z,27.60
2018-08-12T09:59:53.672Z,27.70
2018-08-12T10:02:22.293Z,27.80
2018-08-12T10:04:50.965Z,27.80
2018-08-12T10:07:19.647Z,27.80
2018-08-12T10:09:48.342Z,27.90
2018-08-12T10:12:16.996Z,28.00
2018-08-12T10:14:45.618Z,28.00
2018-08-12T10:17:14.962Z,28.10
2018-08-12T10:19:43.750Z,28.10
2018-08-12T10:22:12.617Z,28.20
2018-08-12T10:24:41.291Z,28.20
2018-08-12T10:27:10.080Z,28.30
2018-08-12T10:29:38.756Z,28.30
2018-08-12T10:32:07.510Z,28.40
2018-08-12T10:34:36.208Z,28.30
2018-08-12T10:37:05.023Z,28.30
2018-08-12T10:39:34.766Z,28.30
2018-08-12T10:42:03.877Z,28.40
2018-08-12T10:44:37.402Z,28.40
2018-08-12T10:47:06.398Z,28.40
2018-08-12T10:49:35.168Z,28.40
2018-08-12T10:52:03.923Z,28.30
2018-08-12T10:54:33.368Z,28.50
2018-08-12T10:57:02.204Z,28.60
2018-08-12T10:59:31.061Z,28.70
2018-08-12T11:01:59.895Z,28.70
2018-08-12T11:04:28.572Z,28.80
2018-08-12T11:06:57.377Z,28.80
2018-08-12T11:09:26.839Z,28.90
2018-08-12T11:11:55.638Z,28.90
2018-08-12T11:14:24.345Z,29.00
2018-08-12T11:16:53.117Z,29.10
2018-08-12T11:19:21.891Z,29.10
2018-08-12T11:21:50.616Z,29.20
2018-08-12T11:24:19.304Z,29.30
2018-08-12T11:26:48.022Z,29.30
2018-08-12T11:29:16.678Z,29.40
2018-08-12T11:31:45.400Z,29.50
2018-08-12T11:34:14.088Z,29.60
2018-08-12T11:36:42.775Z,29.70
2018-08-12T11:39:12.339Z,29.70
2018-08-12T11:41:41.089Z,29.80
2018-08-12T11:44:13.001Z,29.90
2018-08-12T11:46:41.729Z,29.90
2018-08-12T11:49:10.408Z,30.00
2018-08-12T11:51:39.146Z,30.00
2018-08-12T11:54:07.881Z,30.10
2018-08-12T11:56:36.595Z,30.20
2018-08-12T11:59:05.401Z,30.30
2018-08-12T12:01:38.945Z,30.50
2018-08-12T12:04:07.833Z,30.50
2018-08-12T12:06:36.601Z,30.60
2018-08-12T12:09:07.797Z,30.70
2018-08-12T12:11:36.480Z,30.80
2018-08-12T12:14:05.656Z,30.80
2018-08-12T12:16:35.344Z,30.80
2018-08-12T12:19:04.490Z,30.90
2018-08-12T12:21:33.844Z,30.80
2018-08-12T12:24:02.560Z,30.80
2018-08-12T12:26:31.205Z,30.80
2018-08-12T12:28:59.939Z,31.00
2018-08-12T12:31:28.661Z,31.00
2018-08-12T12:33:57.358Z,31.10
2018-08-12T12:36:26.066Z,31.20
2018-08-12T12:38:54.756Z,31.20
2018-08-12T12:41:23.507Z,31.20
2018-08-12T12:43:52.213Z,31.30
2018-08-12T12:46:21.021Z,31.40
2018-08-12T12:48:49.718Z,31.40
2018-08-12T12:51:18.423Z,31.50
2018-08-12T12:53:47.090Z,31.50
2018-08-12T12:56:15.879Z,31.60
2018-08-12T12:58:44.542Z,31.70
2018-08-12T13:01:13.894Z,31.70
2018-08-12T13:03:42.525Z,31.80
2018-08-12T13:06:11.324Z,31.90
2018-08-12T13:08:40.051Z,32.00
2018-08-12T13:11:08.724Z,32.00
2018-08-12T13:13:37.376Z,32.10
2018-08-12T13:16:06.184Z,32.10
2018-08-12T13:18:38.176Z,32.20
2018-08-12T13:21:06.989Z,32.30
2018-08-12T13:23:35.672Z,32.40
2018-08-12T13:26:04.404Z,32.50
2018-08-12T13:28:35.285Z,32.60
2018-08-12T13:31:03.961Z,32.70
2018-08-12T13:33:33.176Z,32.70
2018-08-12T13:36:01.882Z,32.90
2018-08-12T13:38:30.713Z,33.00
2018-08-12T13:41:00.082Z,33.00
2018-08-12T13:43:28.896Z,33.00
2018-08-12T13:45:57.576Z,33.00
2018-08-12T13:48:26.272Z,33.20
2018-08-12T13:50:55.025Z,33.30
2018-08-12T13:53:23.657Z,33.40
2018-08-12T13:55:52.424Z,33.40
2018-08-12T13:58:21.150Z,33.50
2018-08-12T14:00:49.848Z,33.60
2018-08-12T14:03:24.952Z,33.60
2018-08-12T14:05:53.740Z,33.70
2018-08-12T14:08:22.960Z,33.70
2018-08-12T14:10:51.664Z,33.80
2018-08-12T14:13:20.297Z,33.90
2018-08-12T14:15:48.946Z,34.00
2018-08-12T14:18:17.692Z,34.10
2018-08-12T14:20:46.380Z,34.20
2018-08-12T14:23:15.101Z,34.30
2018-08-12T14:25:43.867Z,34.30
2018-08-12T14:28:12.577Z,34.40
2018-08-12T14:30:41.330Z,34.60
2018-08-12T14:33:10.062Z,34.60
2018-08-12T14:35:38.804Z,34.70
2018-08-12T14:38:07.536Z,34.80
2018-08-12T14:40:36.305Z,34.80
2018-08-12T14:43:05.046Z,34.90
2018-08-12T14:45:34.641Z,34.90
2018-08-12T14:48:03.372Z,34.90
2018-08-12T14:50:32.077Z,34.80
2018-08-12T14:53:00.755Z,34.80
2018-08-12T14:55:29.467Z,34.70
2018-08-12T14:57:58.233Z,34.60
2018-08-12T15:00:26.977Z,34.50
2018-08-12T15:02:55.758Z,34.40
2018-08-12T15:05:24.552Z,34.30
2018-08-12T15:07:53.296Z,34.30
2018-08-12T15:10:22.015Z,34.20
2018-08-12T15:12:50.672Z,34.10
2018-08-12T15:15:19.427Z,34.10
2018-08-12T15:17:48.137Z,34.10
2018-08-12T15:20:17.408Z,34.00
2018-08-12T15:22:46.239Z,33.90
2018-08-12T15:25:16.944Z,33.80
2018-08-12T15:27:45.733Z,33.80
2018-08-12T15:30:14.538Z,33.80
2018-08-12T15:32:43.286Z,33.70
2018-08-12T15:35:12.478Z,33.60
2018-08-12T15:37:41.264Z,33.60
2018-08-12T15:40:13.493Z,33.60
2018-08-12T15:42:42.861Z,33.70
2018-08-12T15:45:13.606Z,33.70
2018-08-12T15:47:42.981Z,33.80
2018-08-12T15:50:12.334Z,33.90
2018-08-12T15:52:42.288Z,34.00
2018-08-12T15:55:11.399Z,34.10
2018-08-12T15:57:40.232Z,34.20
2018-08-12T16:00:17.462Z,34.30
2018-08-12T16:02:46.482Z,34.30
2018-08-12T16:05:15.312Z,34.40
2018-08-12T16:07:45.224Z,34.50
2018-08-12T16:10:21.301Z,34.60
2018-08-12T16:12:51.065Z,34.80
2018-08-12T16:15:20.113Z,35.00
2018-08-12T16:17:48.814Z,35.00
2018-08-12T16:20:17.550Z,35.10
2018-08-12T16:22:46.295Z,35.30
2018-08-12T16:25:22.331Z,35.40
2018-08-12T16:27:51.142Z,35.50
2018-08-12T16:30:20.091Z,35.60
2018-08-12T16:32:48.831Z,35.60
2018-08-12T16:35:18.151Z,35.70
2018-08-12T16:37:47.431Z,35.80
2018-08-12T16:40:18.188Z,35.80
2018-08-12T16:42:47.168Z,35.90
2018-08-12T16:45:16.464Z,35.90
2018-08-12T16:47:45.649Z,35.90
2018-08-12T16:50:14.449Z,35.90
2018-08-12T16:52:43.624Z,35.90
2018-08-12T16:55:14.285Z,35.90
2018-08-12T16:57:43.666Z,35.80
2018-08-12T17:00:17.070Z,35.80
2018-08-12T17:02:46.202Z,35.70
2018-08-12T17:05:16.404Z,35.70
2018-08-12T17:07:45.452Z,35.70
2018-08-12T17:10:15.497Z,35.60
2018-08-12T17:12:44.187Z,35.40
2018-08-12T17:15:15.061Z,35.30
2018-08-12T17:17:43.752Z,35.20
2018-08-12T17:20:14.849Z,34.90
2018-08-12T17:22:44.560Z,34.70
2018-08-12T17:25:13.381Z,34.50
2018-08-12T17:27:42.076Z,34.20
2018-08-12T17:30:12.503Z,34.00
2018-08-12T17:32:41.420Z,33.70
2018-08-12T17:35:11.304Z,33.40
2018-08-12T17:37:40.708Z,33.10
2018-08-12T17:40:11.355Z,32.90
2018-08-12T17:42:40.114Z,32.70
2018-08-12T17:45:10.377Z,32.60
2018-08-12T17:47:39.512Z,32.40
2018-08-12T17:50:09.693Z,32.20
2018-08-12T17:52:38.380Z,32.00
2018-08-12T17:55:07.844Z,31.90
2018-08-12T17:57:36.602Z,31.70
2018-08-12T18:00:07.865Z,31.60
2018-08-12T18:02:36.656Z,31.50
2018-08-12T18:05:05.814Z,31.30
2018-08-12T18:07:35.540Z,31.20
2018-08-12T18:10:04.729Z,31.10
2018-08-12T18:12:34.330Z,31.00
2018-08-12T18:15:03.115Z,30.90
2018-08-12T18:17:32.156Z,30.90
2018-08-12T18:20:00.889Z,30.80
2018-08-12T18:22:29.632Z,30.70
2018-08-12T18:24:58.313Z,30.60
2018-08-12T18:27:27.030Z,30.50
2018-08-12T18:29:55.769Z,30.40
2018-08-12T18:32:24.595Z,30.30
2018-08-12T18:34:53.306Z,30.20
2018-08-12T18:37:22.075Z,30.10
2018-08-12T18:39:50.732Z,30.10
2018-08-12T18:42:19.408Z,30.00
2018-08-12T18:44:48.053Z,30.00
2018-08-12T18:47:16.858Z,29.90
2018-08-12T18:49:45.521Z,29.90
2018-08-12T18:52:14.416Z,29.80
2018-08-12T18:54:43.092Z,29.70
2018-08-12T18:57:11.760Z,29.70
2018-08-12T18:59:40.453Z,29.60
2018-08-12T19:02:09.878Z,29.60
2018-08-12T19:04:38.617Z,29.50
2018-08-12T19:07:07.334Z,29.50
2018-08-12T19:09:36.092Z,29.50
2018-08-12T19:12:04.861Z,29.40
2018-08-12T19:14:34.217Z,29.40
2018-08-12T19:17:02.919Z,29.40
2018-08-12T19:19:31.591Z,29.30
2018-08-12T19:22:00.384Z,29.20
2018-08-12T19:24:29.065Z,29.20
2018-08-12T19:26:57.788Z,29.10
2018-08-12T19:29:26.517Z,29.10
2018-08-12T19:31:55.203Z,29.00
2018-08-12T19:34:23.907Z,29.00
2018-08-12T19:36:52.624Z,29.00
2018-08-12T19:39:21.309Z,28.90
2018-08-12T19:41:49.963Z,28.90
2018-08-12T19:44:18.644Z,28.80
2018-08-12T19:46:47.407Z,28.80
2018-08-12T19:49:16.054Z,28.70
2018-08-12T19:51:44.793Z,28.70
2018-08-12T19:54:13.472Z,28.60
2018-08-12T19:56:42.175Z,28.60
2018-08-12T19:59:10.846Z,28.60
2018-08-12T20:01:39.534Z,28.50
2018-08-12T20:04:08.246Z,28.50
2018-08-12T20:06:36.886Z,28.50
2018-08-12T20:09:08.634Z,28.40
2018-08-12T20:11:37.313Z,28.40
2018-08-12T20:14:06.375Z,28.30
2018-08-12T20:16:35.049Z,28.30
2018-08-12T20:19:03.829Z,28.20
2018-08-12T20:21:32.556Z,28.20
2018-08-12T20:24:01.595Z,28.10
2018-08-12T20:26:30.329Z,28.10
2018-08-12T20:28:58.992Z,28.10
2018-08-12T20:31:27.788Z,28.10
2018-08-12T20:33:56.595Z,28.10
2018-08-12T20:36:25.515Z,28.00
2018-08-12T20:38:54.268Z,28.00
2018-08-12T20:41:23.084Z,28.00
2018-08-12T20:43:51.869Z,28.00
2018-08-12T20:46:20.580Z,27.90
2018-08-12T20:48:49.271Z,27.90
2018-08-12T20:51:18.518Z,27.90
2018-08-12T20:53:47.165Z,27.90
2018-08-12T20:56:15.854Z,27.80
2018-08-12T20:58:44.526Z,27.90
2018-08-12T21:01:13.263Z,27.80
2018-08-12T21:03:41.936Z,27.80
2018-08-12T21:06:10.726Z,27.80
2018-08-12T21:08:39.468Z,27.70
2018-08-12T21:11:08.109Z,27.70
2018-08-12T21:13:36.798Z,27.70
2018-08-12T21:16:05.666Z,27.60
2018-08-12T21:18:35.241Z,27.60
2018-08-12T21:21:03.942Z,27.60
2018-08-12T21:23:33.224Z,27.50
2018-08-12T21:26:01.957Z,27.60
2018-08-12T21:28:30.686Z,27.50
2018-08-12T21:30:59.375Z,27.40
2018-08-12T21:33:28.485Z,27.40
2018-08-12T21:35:57.227Z,27.40
2018-08-12T21:38:25.869Z,27.40
2018-08-12T21:40:54.630Z,27.40
2018-08-12T21:43:23.329Z,27.30
2018-08-12T21:45:52.067Z,27.30
2018-08-12T21:48:20.760Z,27.30
2018-08-12T21:50:49.476Z,27.30
2018-08-12T21:53:18.167Z,27.30
2018-08-12T21:55:46.877Z,27.20
2018-08-12T21:58:15.603Z,27.20
2018-08-12T22:00:44.391Z,27.20
2018-08-12T22:03:13.062Z,27.20
2018-08-12T22:05:41.873Z,27.20
2018-08-12T22:08:10.580Z,27.10
2018-08-12T22:10:39.972Z,27.10
2018-08-12T22:13:09.491Z,27.10
2018-08-12T22:15:38.278Z,27.00
2018-08-12T22:18:08.303Z,27.00
2018-08-12T22:20:37.182Z,27.00
2018-08-12T22:23:06.069Z,26.90
2018-08-12T22:25:39.353Z,26.90
2018-08-12T22:28:08.831Z,26.90
2018-08-12T22:30:37.557Z,26.80
2018-08-12T22:33:06.394Z,26.80
2018-08-12T22:35:35.154Z,26.80
2018-08-12T22:38:03.833Z,26.70
2018-08-12T22:40:32.627Z,26.70
2018-08-12T22:43:01.449Z,26.70
2018-08-12T22:45:30.148Z,26.70
2018-08-12T22:47:58.805Z,26.60
2018-08-12T22:50:27.524Z,26.60
2018-08-12T22:52:56.197Z,26.60
2018-08-12T22:55:24.967Z,26.60
2018-08-12T22:57:53.655Z,26.50
2018-08-12T23:00:22.407Z,26.50
2018-08-12T23:02:51.188Z,26.50
2018-08-12T23:05:19.916Z,26.50
2018-08-12T23:07:48.656Z,26.50
2018-08-12T23:10:17.334Z,26.40
2018-08-12T23:12:45.980Z,26.40
2018-08-12T23:15:25.833Z,26.40
2018-08-12T23:17:54.572Z,26.40
2018-08-12T23:20:23.288Z,26.40
2018-08-12T23:22:51.958Z,26.40
2018-08-12T23:25:20.609Z,26.30
2018-08-12T23:27:50.184Z,26.30
2018-08-12T23:30:18.889Z,26.30
2018-08-12T23:32:47.594Z,26.20
2018-08-12T23:35:16.282Z,26.20
2018-08-12T23:37:44.924Z,26.20
2018-08-12T23:40:13.592Z,26.20
2018-08-12T23:42:42.249Z,26.20
2018-08-12T23:45:11.009Z,26.10
2018-08-12T23:47:39.744Z,26.10
2018-08-12T23:50:08.555Z,26.10
2018-08-12T23:52:37.232Z,26.10
2018-08-12T23:55:05.893Z,26.00
2018-08-12T23:57:35.780Z,26.00
